sensor_id;sensor_type;location;lat;lon;timestamp;pressure;altitude;pressure_sealevel;temperature
49593;BMP280;35499;51.482;4.264;2023-07-28T00:01:53;100518.88;;;18.68
49593;BMP280;35499;51.482;4.264;2023-07-28T00:04:18;100517.19;;;18.67
49593;BMP280;35499;51.482;4.264;2023-07-28T00:06:43;100519.78;;;18.67
49593;BMP280;35499;51.482;4.264;2023-07-28T00:09:09;100519.78;;;18.67
49593;BMP280;35499;51.482;4.264;2023-07-28T00:11:34;100532.81;;;18.67
49593;BMP280;35499;51.482;4.264;2023-07-28T00:13:59;100525.91;;;18.66
49593;BMP280;35499;51.482;4.264;2023-07-28T00:16:25;100531.09;;;18.66
49593;BMP280;35499;51.482;4.264;2023-07-28T00:18:50;100522.41;;;18.67
49593;BMP280;35499;51.482;4.264;2023-07-28T00:21:15;100525.75;;;18.69
49593;BMP280;35499;51.482;4.264;2023-07-28T00:23:41;100526.63;;;18.69
49593;BMP280;35499;51.482;4.264;2023-07-28T00:26:06;100522.25;;;18.70
49593;BMP280;35499;51.482;4.264;2023-07-28T00:28:32;100519.66;;;18.70
49593;BMP280;35499;51.482;4.264;2023-07-28T00:30:57;100521.41;;;18.69
49593;BMP280;35499;51.482;4.264;2023-07-28T00:33:22;100517.06;;;18.70
49593;BMP280;35499;51.482;4.264;2023-07-28T00:35:48;100518.75;;;18.71
49593;BMP280;35499;51.482;4.264;2023-07-28T00:38:14;100509.13;;;18.73
49593;BMP280;35499;51.482;4.264;2023-07-28T00:40:39;100515.06;;;18.75
49593;BMP280;35499;51.482;4.264;2023-07-28T00:43:05;100522.78;;;18.76
49593;BMP280;35499;51.482;4.264;2023-07-28T00:45:32;100531.34;;;18.78
49593;BMP280;35499;51.482;4.264;2023-07-28T00:47:58;100520.03;;;18.79
49593;BMP280;35499;51.482;4.264;2023-07-28T00:50:24;100534.72;;;18.80
49593;BMP280;35499;51.482;4.264;2023-07-28T00:52:49;100530.34;;;18.81
49593;BMP280;35499;51.482;4.264;2023-07-28T00:55:15;100518.25;;;18.80
49593;BMP280;35499;51.482;4.264;2023-07-28T00:57:41;100519.09;;;18.80
49593;BMP280;35499;51.482;4.264;2023-07-28T01:00:06;100518.13;;;18.82
49593;BMP280;35499;51.482;4.264;2023-07-28T01:02:32;100513.72;;;18.83
49593;BMP280;35499;51.482;4.264;2023-07-28T01:04:58;100516.25;;;18.84
49593;BMP280;35499;51.482;4.264;2023-07-28T01:07:30;100521.47;;;18.84
49593;BMP280;35499;51.482;4.264;2023-07-28T01:10:06;100509.31;;;18.85
49593;BMP280;35499;51.482;4.264;2023-07-28T01:12:32;100519.63;;;18.86
49593;BMP280;35499;51.482;4.264;2023-07-28T01:14:57;100520.47;;;18.87
49593;BMP280;35499;51.482;4.264;2023-07-28T01:17:22;100509.97;;;18.88
49593;BMP280;35499;51.482;4.264;2023-07-28T01:19:51;100509.97;;;18.88
49593;BMP280;35499;51.482;4.264;2023-07-28T01:27:42;100520.31;;;18.90
49593;BMP280;35499;51.482;4.264;2023-07-28T01:30:09;100522.06;;;18.89
49593;BMP280;35499;51.482;4.264;2023-07-28T01:32:35;100528.13;;;18.90
49593;BMP280;35499;51.482;4.264;2023-07-28T01:35:04;100527.19;;;18.91
49593;BMP280;35499;51.482;4.264;2023-07-28T01:37:30;100528.97;;;18.90
49593;BMP280;35499;51.482;4.264;2023-07-28T01:39:56;100520.25;;;18.91
49593;BMP280;35499;51.482;4.264;2023-07-28T01:42:22;100521.94;;;18.92
49593;BMP280;35499;51.482;4.264;2023-07-28T01:44:48;100530.59;;;18.93
49593;BMP280;35499;51.482;4.264;2023-07-28T01:47:13;100521.94;;;18.92
49593;BMP280;35499;51.482;4.264;2023-07-28T01:49:39;100520.25;;;18.91
49593;BMP280;35499;51.482;4.264;2023-07-28T01:52:04;100528.03;;;18.91
49593;BMP280;35499;51.482;4.264;2023-07-28T01:54:29;100525.44;;;18.91
49593;BMP280;35499;51.482;4.264;2023-07-28T01:56:54;100528.03;;;18.91
49593;BMP280;35499;51.482;4.264;2023-07-28T01:59:20;100525.44;;;18.91
49593;BMP280;35499;51.482;4.264;2023-07-28T02:01:46;100521.09;;;18.92
49593;BMP280;35499;51.482;4.264;2023-07-28T02:04:12;100516.72;;;18.92
49593;BMP280;35499;51.482;4.264;2023-07-28T02:06:37;100524.53;;;18.92
49593;BMP280;35499;51.482;4.264;2023-07-28T02:09:02;100524.53;;;18.92
49593;BMP280;35499;51.482;4.264;2023-07-28T02:11:28;100517.63;;;18.91
49593;BMP280;35499;51.482;4.264;2023-07-28T02:13:53;100526.19;;;18.93
49593;BMP280;35499;51.482;4.264;2023-07-28T02:16:18;100524.53;;;18.92
49593;BMP280;35499;51.482;4.264;2023-07-28T02:18:43;100521.94;;;18.92
49593;BMP280;35499;51.482;4.264;2023-07-28T02:21:09;100527.19;;;18.91
49593;BMP280;35499;51.482;4.264;2023-07-28T02:23:34;100527.19;;;18.91
49593;BMP280;35499;51.482;4.264;2023-07-28T02:25:59;100525.44;;;18.91
49593;BMP280;35499;51.482;4.264;2023-07-28T02:28:25;100524.53;;;18.92
49593;BMP280;35499;51.482;4.264;2023-07-28T02:30:50;100522.78;;;18.93
49593;BMP280;35499;51.482;4.264;2023-07-28T02:33:15;100520.97;;;18.93
49593;BMP280;35499;51.482;4.264;2023-07-28T02:35:40;100523.59;;;18.93
49593;BMP280;35499;51.482;4.264;2023-07-28T02:38:06;100522.66;;;18.94
49593;BMP280;35499;51.482;4.264;2023-07-28T02:40:32;100520.97;;;18.93
49593;BMP280;35499;51.482;4.264;2023-07-28T02:42:57;100514.84;;;18.94
49593;BMP280;35499;51.482;4.264;2023-07-28T02:45:23;100519.16;;;18.95
49593;BMP280;35499;51.482;4.264;2023-07-28T02:47:50;100518.31;;;18.95
49593;BMP280;35499;51.482;4.264;2023-07-28T02:50:15;100520.84;;;18.96
49593;BMP280;35499;51.482;4.264;2023-07-28T02:52:40;100522.53;;;18.97
49593;BMP280;35499;51.482;4.264;2023-07-28T02:55:06;100528.56;;;18.98
49593;BMP280;35499;51.482;4.264;2023-07-28T02:57:31;100533.78;;;18.98
49593;BMP280;35499;51.482;4.264;2023-07-28T02:59:56;100532.09;;;18.97
49593;BMP280;35499;51.482;4.264;2023-07-28T03:02:22;100541.66;;;18.96
49593;BMP280;35499;51.482;4.264;2023-07-28T03:04:47;100536.47;;;18.96
49593;BMP280;35499;51.482;4.264;2023-07-28T03:07:13;100539.97;;;18.95
49593;BMP280;35499;51.482;4.264;2023-07-28T03:09:38;100542.56;;;18.95
49593;BMP280;35499;51.482;4.264;2023-07-28T03:12:03;100542.56;;;18.95
49593;BMP280;35499;51.482;4.264;2023-07-28T03:14:31;100535.69;;;18.94
49593;BMP280;35499;51.482;4.264;2023-07-28T03:16:57;100536.53;;;18.95
49593;BMP280;35499;51.482;4.264;2023-07-28T03:19:22;100543.50;;;18.94
49593;BMP280;35499;51.482;4.264;2023-07-28T03:21:48;100540.03;;;18.94
49593;BMP280;35499;51.482;4.264;2023-07-28T03:24:13;100541.81;;;18.93
49593;BMP280;35499;51.482;4.264;2023-07-28T03:26:38;100539.19;;;18.93
49593;BMP280;35499;51.482;4.264;2023-07-28T03:29:03;100540.16;;;18.92
49593;BMP280;35499;51.482;4.264;2023-07-28T03:31:29;100539.31;;;18.92
49593;BMP280;35499;51.482;4.264;2023-07-28T03:33:55;100534.94;;;18.92
49593;BMP280;35499;51.482;4.264;2023-07-28T03:36:20;100544.41;;;18.93
49593;BMP280;35499;51.482;4.264;2023-07-28T03:38:45;100550.56;;;18.92
49593;BMP280;35499;51.482;4.264;2023-07-28T03:41:12;100541.81;;;18.93
49593;BMP280;35499;51.482;4.264;2023-07-28T03:43:37;100555.75;;;18.92
49593;BMP280;35499;51.482;4.264;2023-07-28T03:46:02;100561.88;;;18.91
49593;BMP280;35499;51.482;4.264;2023-07-28T03:48:28;100559.28;;;18.91
49593;BMP280;35499;51.482;4.264;2023-07-28T03:50:53;100558.44;;;18.91
49593;BMP280;35499;51.482;4.264;2023-07-28T03:53:18;100552.38;;;18.90
49593;BMP280;35499;51.482;4.264;2023-07-28T03:55:44;100552.31;;;18.92
49593;BMP280;35499;51.482;4.264;2023-07-28T03:58:09;100557.41;;;18.93
49593;BMP280;35499;51.482;4.264;2023-07-28T04:00:34;100558.38;;;18.92
49593;BMP280;35499;51.482;4.264;2023-07-28T04:02:59;100555.75;;;18.92
49593;BMP280;35499;51.482;4.264;2023-07-28T04:05:25;100558.38;;;18.92
49593;BMP280;35499;51.482;4.264;2023-07-28T04:07:50;100559.28;;;18.91
49593;BMP280;35499;51.482;4.264;2023-07-28T04:10:15;100557.53;;;18.92
49593;BMP280;35499;51.482;4.264;2023-07-28T04:12:41;100555.75;;;18.92
49593;BMP280;35499;51.482;4.264;2023-07-28T04:15:06;100556.59;;;18.93
49593;BMP280;35499;51.482;4.264;2023-07-28T04:17:32;100540.16;;;18.92
49593;BMP280;35499;51.482;4.264;2023-07-28T04:19:57;100552.22;;;18.93
49593;BMP280;35499;51.482;4.264;2023-07-28T04:22:23;100553.06;;;18.94
49593;BMP280;35499;51.482;4.264;2023-07-28T04:24:48;100556.59;;;18.93
49593;BMP280;35499;51.482;4.264;2023-07-28T04:27:14;100558.25;;;18.94
49593;BMP280;35499;51.482;4.264;2023-07-28T04:29:39;100562.56;;;18.95
49593;BMP280;35499;51.482;4.264;2023-07-28T04:32:05;100567.75;;;18.95
49593;BMP280;35499;51.482;4.264;2023-07-28T04:34:33;100553.91;;;18.94
49593;BMP280;35499;51.482;4.264;2023-07-28T04:36:58;100571.22;;;18.95
49593;BMP280;35499;51.482;4.264;2023-07-28T04:39:23;100568.53;;;18.97
49593;BMP280;35499;51.482;4.264;2023-07-28T04:41:49;100563.31;;;18.97
49593;BMP280;35499;51.482;4.264;2023-07-28T04:44:14;100572.81;;;18.98
49593;BMP280;35499;51.482;4.264;2023-07-28T04:46:39;100572.81;;;18.98
49593;BMP280;35499;51.482;4.264;2023-07-28T04:49:05;100576.25;;;18.98
49593;BMP280;35499;51.482;4.264;2023-07-28T04:51:30;100578.78;;;18.99
49593;BMP280;35499;51.482;4.264;2023-07-28T04:53:55;100574.41;;;19.00
49593;BMP280;35499;51.482;4.264;2023-07-28T04:56:21;100582.22;;;19.00
49593;BMP280;35499;51.482;4.264;2023-07-28T04:58:46;100583.00;;;19.02
49593;BMP280;35499;51.482;4.264;2023-07-28T05:01:11;100582.06;;;19.03
49593;BMP280;35499;51.482;4.264;2023-07-28T05:03:38;100585.50;;;19.03
49593;BMP280;35499;51.482;4.264;2023-07-28T05:06:03;100588.03;;;19.05
49593;BMP280;35499;51.482;4.264;2023-07-28T05:08:30;100592.31;;;19.06
49593;BMP280;35499;51.482;4.264;2023-07-28T05:10:56;100590.56;;;19.06
49593;BMP280;35499;51.482;4.264;2023-07-28T05:13:22;100593.25;;;19.05
49593;BMP280;35499;51.482;4.264;2023-07-28T05:15:47;100594.00;;;19.07
49593;BMP280;35499;51.482;4.264;2023-07-28T05:18:12;100594.84;;;19.07
49593;BMP280;35499;51.482;4.264;2023-07-28T05:20:38;100590.47;;;19.08
49593;BMP280;35499;51.482;4.264;2023-07-28T05:23:03;100596.44;;;19.10
49593;BMP280;35499;51.482;4.264;2023-07-28T05:25:28;100597.22;;;19.12
49593;BMP280;35499;51.482;4.264;2023-07-28T05:27:54;100598.91;;;19.13
49593;BMP280;35499;51.482;4.264;2023-07-28T05:30:19;100599.72;;;19.13
49593;BMP280;35499;51.482;4.264;2023-07-28T05:32:47;100603.16;;;19.14
49593;BMP280;35499;51.482;4.264;2023-07-28T05:35:12;100596.19;;;19.14
49593;BMP280;35499;51.482;4.264;2023-07-28T05:37:38;100605.69;;;19.15
49593;BMP280;35499;51.482;4.264;2023-07-28T05:40:03;100605.63;;;19.17
49593;BMP280;35499;51.482;4.264;2023-07-28T05:42:30;100599.56;;;19.16
49593;BMP280;35499;51.482;4.264;2023-07-28T05:44:55;100597.72;;;19.18
49593;BMP280;35499;51.482;4.264;2023-07-28T05:47:20;100603.03;;;19.17
49593;BMP280;35499;51.482;4.264;2023-07-28T05:49:46;100599.50;;;19.17
49593;BMP280;35499;51.482;4.264;2023-07-28T05:52:12;100599.50;;;19.17
49593;BMP280;35499;51.482;4.264;2023-07-28T05:54:37;100602.13;;;19.17
49593;BMP280;35499;51.482;4.264;2023-07-28T05:57:02;100613.28;;;19.19
49593;BMP280;35499;51.482;4.264;2023-07-28T05:59:28;100608.97;;;19.18
49593;BMP280;35499;51.482;4.264;2023-07-28T06:01:53;100616.78;;;19.18
49593;BMP280;35499;51.482;4.264;2023-07-28T06:04:18;100616.78;;;19.18
49593;BMP280;35499;51.482;4.264;2023-07-28T06:06:44;100624.59;;;19.18
49593;BMP280;35499;51.482;4.264;2023-07-28T06:09:09;100631.50;;;19.19
49593;BMP280;35499;51.482;4.264;2023-07-28T06:11:34;100623.69;;;19.19
49593;BMP280;35499;51.482;4.264;2023-07-28T06:14:00;100628.91;;;19.19
49593;BMP280;35499;51.482;4.264;2023-07-28T06:16:25;100622.78;;;19.20
49593;BMP280;35499;51.482;4.264;2023-07-28T06:18:50;100633.19;;;19.20
49593;BMP280;35499;51.482;4.264;2023-07-28T06:21:15;100635.78;;;19.20
49593;BMP280;35499;51.482;4.264;2023-07-28T06:23:41;100635.78;;;19.20
49593;BMP280;35499;51.482;4.264;2023-07-28T06:26:06;100635.78;;;19.20
49593;BMP280;35499;51.482;4.264;2023-07-28T06:28:31;100640.09;;;19.21
49593;BMP280;35499;51.482;4.264;2023-07-28T06:30:57;100647.91;;;19.21
49593;BMP280;35499;51.482;4.264;2023-07-28T06:33:27;100646.28;;;19.19
49593;BMP280;35499;51.482;4.264;2023-07-28T06:35:53;100646.19;;;19.20
49593;BMP280;35499;51.482;4.264;2023-07-28T06:38:18;100647.91;;;19.21
49593;BMP280;35499;51.482;4.264;2023-07-28T06:40:43;100659.06;;;19.23
49593;BMP280;35499;51.482;4.264;2023-07-28T06:43:09;100660.00;;;19.22
49593;BMP280;35499;51.482;4.264;2023-07-28T06:45:34;100657.41;;;19.22
49593;BMP280;35499;51.482;4.264;2023-07-28T06:48:00;100652.00;;;19.25
49593;BMP280;35499;51.482;4.264;2023-07-28T06:50:25;100654.56;;;19.27
49593;BMP280;35499;51.482;4.264;2023-07-28T06:52:50;100659.66;;;19.28
49593;BMP280;35499;51.482;4.264;2023-07-28T06:55:17;100658.66;;;19.31
49593;BMP280;35499;51.482;4.264;2023-07-28T06:57:42;100665.41;;;19.35
49593;BMP280;35499;51.482;4.264;2023-07-28T07:00:08;100671.47;;;19.35
49593;BMP280;35499;51.482;4.264;2023-07-28T07:02:37;100677.44;;;19.37
49593;BMP280;35499;51.482;4.264;2023-07-28T07:05:03;100673.06;;;19.37
49593;BMP280;35499;51.482;4.264;2023-07-28T07:07:28;100675.59;;;19.39
49593;BMP280;35499;51.482;4.264;2023-07-28T07:09:53;100673.75;;;19.41
49593;BMP280;35499;51.482;4.264;2023-07-28T07:12:19;100682.22;;;19.44
49593;BMP280;35499;51.482;4.264;2023-07-28T07:14:46;100674.19;;;19.49
49593;BMP280;35499;51.482;4.264;2023-07-28T07:17:11;100680.09;;;19.52
49593;BMP280;35499;51.482;4.264;2023-07-28T07:19:37;100691.22;;;19.55
49593;BMP280;35499;51.482;4.264;2023-07-28T07:22:02;100685.84;;;19.58
49593;BMP280;35499;51.482;4.264;2023-07-28T07:24:27;100680.50;;;19.61
49593;BMP280;35499;51.482;4.264;2023-07-28T07:26:53;100686.53;;;19.62
49593;BMP280;35499;51.482;4.264;2023-07-28T07:29:18;100689.81;;;19.65
49593;BMP280;35499;51.482;4.264;2023-07-28T07:31:43;100685.38;;;19.67
49593;BMP280;35499;51.482;4.264;2023-07-28T07:34:09;100680.78;;;19.72
49593;BMP280;35499;51.482;4.264;2023-07-28T07:36:34;100681.38;;;19.77
49593;BMP280;35499;51.482;4.264;2023-07-28T07:38:59;100678.41;;;19.83
49593;BMP280;35499;51.482;4.264;2023-07-28T07:41:25;100685.91;;;19.89
49593;BMP280;35499;51.482;4.264;2023-07-28T07:43:53;100691.63;;;19.95
49593;BMP280;35499;51.482;4.264;2023-07-28T07:46:18;100682.56;;;20.02
49593;BMP280;35499;51.482;4.264;2023-07-28T07:48:45;100686.63;;;20.07
49593;BMP280;35499;51.482;4.264;2023-07-28T07:51:10;100689.72;;;20.13
49593;BMP280;35499;51.482;4.264;2023-07-28T07:53:36;100685.94;;;20.19
49593;BMP280;35499;51.482;4.264;2023-07-28T07:56:05;100683.06;;;20.23
49593;BMP280;35499;51.482;4.264;2023-07-28T07:58:31;100692.31;;;20.28
49593;BMP280;35499;51.482;4.264;2023-07-28T08:00:56;100692.88;;;20.35
49593;BMP280;35499;51.482;4.264;2023-07-28T08:03:22;100691.69;;;20.40
49593;BMP280;35499;51.482;4.264;2023-07-28T08:05:47;100691.50;;;20.43
49593;BMP280;35499;51.482;4.264;2023-07-28T08:08:13;100692.09;;;20.48
49593;BMP280;35499;51.482;4.264;2023-07-28T08:10:40;100691.03;;;20.52
49593;BMP280;35499;51.482;4.264;2023-07-28T08:13:05;100693.44;;;20.55
49593;BMP280;35499;51.482;4.264;2023-07-28T08:15:31;100700.28;;;20.57
49593;BMP280;35499;51.482;4.264;2023-07-28T08:17:56;100696.63;;;20.60
49593;BMP280;35499;51.482;4.264;2023-07-28T08:20:21;100698.91;;;20.65
49593;BMP280;35499;51.482;4.264;2023-07-28T08:22:46;100697.81;;;20.69
49593;BMP280;35499;51.482;4.264;2023-07-28T08:25:12;100691.13;;;20.79
49593;BMP280;35499;51.482;4.264;2023-07-28T08:27:37;100695.66;;;20.91
49593;BMP280;35499;51.482;4.264;2023-07-28T08:30:03;100695.88;;;21.01
49593;BMP280;35499;51.482;4.264;2023-07-28T08:32:29;100692.91;;;21.07
49593;BMP280;35499;51.482;4.264;2023-07-28T08:34:54;100691.84;;;21.11
49593;BMP280;35499;51.482;4.264;2023-07-28T08:37:19;100694.25;;;21.14
49593;BMP280;35499;51.482;4.264;2023-07-28T08:39:45;100697.66;;;21.16
49593;BMP280;35499;51.482;4.264;2023-07-28T08:42:10;100705.13;;;21.22
49593;BMP280;35499;51.482;4.264;2023-07-28T08:44:35;100706.69;;;21.24
49593;BMP280;35499;51.482;4.264;2023-07-28T08:47:03;100706.44;;;21.29
49593;BMP280;35499;51.482;4.264;2023-07-28T08:49:32;100707.75;;;21.35
49593;BMP280;35499;51.482;4.264;2023-07-28T08:51:59;100704.78;;;21.41
49593;BMP280;35499;51.482;4.264;2023-07-28T08:54:24;100709.06;;;21.42
49593;BMP280;35499;51.482;4.264;2023-07-28T08:56:50;100711.31;;;21.48
49593;BMP280;35499;51.482;4.264;2023-07-28T08:59:25;100712.44;;;21.58
49593;BMP280;35499;51.482;4.264;2023-07-28T09:04:33;100715.75;;;21.75
49593;BMP280;35499;51.482;4.264;2023-07-28T09:06:58;100722.59;;;21.91
49593;BMP280;35499;51.482;4.264;2023-07-28T09:09:23;100715.75;;;22.02
49593;BMP280;35499;51.482;4.264;2023-07-28T09:11:51;100714.72;;;22.18
49593;BMP280;35499;51.482;4.264;2023-07-28T09:14:18;100714.31;;;22.38
49593;BMP280;35499;51.482;4.264;2023-07-28T09:16:44;100711.47;;;22.54
49593;BMP280;35499;51.482;4.264;2023-07-28T09:19:10;100706.75;;;22.73
49593;BMP280;35499;51.482;4.264;2023-07-28T09:21:36;100708.38;;;22.87
49593;BMP280;35499;51.482;4.264;2023-07-28T09:24:06;100710.41;;;22.96
49593;BMP280;35499;51.482;4.264;2023-07-28T09:26:46;100703.09;;;23.01
49593;BMP280;35499;51.482;4.264;2023-07-28T09:29:20;100701.00;;;23.06
49593;BMP280;35499;51.482;4.264;2023-07-28T09:31:47;100701.31;;;23.13
49593;BMP280;35499;51.482;4.264;2023-07-28T09:34:23;100701.66;;;23.21
49593;BMP280;35499;51.482;4.264;2023-07-28T09:36:48;100706.50;;;23.27
49593;BMP280;35499;51.482;4.264;2023-07-28T09:39:14;100713.34;;;23.30
49593;BMP280;35499;51.482;4.264;2023-07-28T09:41:39;100709.56;;;23.33
49593;BMP280;35499;51.482;4.264;2023-07-28T09:44:05;100708.84;;;23.44
49593;BMP280;35499;51.482;4.264;2023-07-28T09:46:33;100710.78;;;23.66
49593;BMP280;35499;51.482;4.264;2023-07-28T09:49:05;100706.78;;;23.97
49593;BMP280;35499;51.482;4.264;2023-07-28T09:51:31;100705.59;;;24.25
49593;BMP280;35499;51.482;4.264;2023-07-28T09:54:05;100711.94;;;24.34
49593;BMP280;35499;51.482;4.264;2023-07-28T09:56:31;100714.34;;;24.37
49593;BMP280;35499;51.482;4.264;2023-07-28T09:58:58;100722.88;;;24.40
49593;BMP280;35499;51.482;4.264;2023-07-28T10:01:24;100722.41;;;24.46
49593;BMP280;35499;51.482;4.264;2023-07-28T10:03:50;100712.94;;;24.56
49593;BMP280;35499;51.482;4.264;2023-07-28T10:06:16;100720.69;;;24.69
49593;BMP280;35499;51.482;4.264;2023-07-28T10:08:42;100720.47;;;24.72
49593;BMP280;35499;51.482;4.264;2023-07-28T10:11:09;100721.25;;;24.85
49593;BMP280;35499;51.482;4.264;2023-07-28T10:13:42;100715.81;;;25.21
49593;BMP280;35499;51.482;4.264;2023-07-28T10:16:08;100709.50;;;25.79
49593;BMP280;35499;51.482;4.264;2023-07-28T10:18:36;100718.16;;;26.34
49593;BMP280;35499;51.482;4.264;2023-07-28T10:21:06;100716.41;;;26.76
49593;BMP280;35499;51.482;4.264;2023-07-28T10:23:34;100706.59;;;27.39
49593;BMP280;35499;51.482;4.264;2023-07-28T10:26:00;100701.50;;;27.67
49593;BMP280;35499;51.482;4.264;2023-07-28T10:28:34;100710.69;;;27.52
49593;BMP280;35499;51.482;4.264;2023-07-28T10:31:04;100715.13;;;27.32
49593;BMP280;35499;51.482;4.264;2023-07-28T10:35:59;100721.84;;;26.42
49593;BMP280;35499;51.482;4.264;2023-07-28T10:38:29;100722.22;;;26.17
49593;BMP280;35499;51.482;4.264;2023-07-28T10:41:05;100721.63;;;26.13
49593;BMP280;35499;51.482;4.264;2023-07-28T10:43:31;100719.00;;;26.13
49593;BMP280;35499;51.482;4.264;2023-07-28T10:45:56;100710.16;;;26.03
49593;BMP280;35499;51.482;4.264;2023-07-28T10:48:23;100711.19;;;25.90
49593;BMP280;35499;51.482;4.264;2023-07-28T10:50:49;100709.09;;;25.95
49593;BMP280;35499;51.482;4.264;2023-07-28T10:53:15;100711.09;;;26.13
49593;BMP280;35499;51.482;4.264;2023-07-28T10:55:40;100703.41;;;26.42
49593;BMP280;35499;51.482;4.264;2023-07-28T10:58:06;100710.81;;;26.70
49593;BMP280;35499;51.482;4.264;2023-07-28T11:00:31;100697.41;;;27.03
49593;BMP280;35499;51.482;4.264;2023-07-28T11:02:57;100700.06;;;27.23
49593;BMP280;35499;51.482;4.264;2023-07-28T11:05:24;100697.22;;;27.15
49593;BMP280;35499;51.482;4.264;2023-07-28T11:07:51;100699.56;;;26.98
49593;BMP280;35499;51.482;4.264;2023-07-28T11:10:18;100707.16;;;26.81
49593;BMP280;35499;51.482;4.264;2023-07-28T11:12:45;100706.81;;;26.75
49593;BMP280;35499;51.482;4.264;2023-07-28T11:15:12;100706.34;;;26.70
49593;BMP280;35499;51.482;4.264;2023-07-28T11:17:43;100700.03;;;26.62
49593;BMP280;35499;51.482;4.264;2023-07-28T11:20:23;100705.78;;;26.56
49593;BMP280;35499;51.482;4.264;2023-07-28T11:23:06;100706.75;;;26.55
49593;BMP280;35499;51.482;4.264;2023-07-28T11:25:33;100710.00;;;26.58
49593;BMP280;35499;51.482;4.264;2023-07-28T11:28:03;100711.53;;;26.50
49593;BMP280;35499;51.482;4.264;2023-07-28T11:30:31;100723.06;;;26.28
49593;BMP280;35499;51.482;4.264;2023-07-28T11:32:58;100729.50;;;25.92
49593;BMP280;35499;51.482;4.264;2023-07-28T11:35:23;100723.22;;;25.61
49593;BMP280;35499;51.482;4.264;2023-07-28T11:37:50;100723.63;;;25.33
49593;BMP280;35499;51.482;4.264;2023-07-28T11:40:19;100732.84;;;25.05
49593;BMP280;35499;51.482;4.264;2023-07-28T11:42:54;100725.28;;;24.78
49593;BMP280;35499;51.482;4.264;2023-07-28T11:45:20;100730.47;;;24.67
49593;BMP280;35499;51.482;4.264;2023-07-28T11:47:58;100722.59;;;24.67
49593;BMP280;35499;51.482;4.264;2023-07-28T11:50:34;100733.16;;;24.78
49593;BMP280;35499;51.482;4.264;2023-07-28T11:52:59;100722.91;;;24.86
49593;BMP280;35499;51.482;4.264;2023-07-28T11:55:25;100730.66;;;24.99
49593;BMP280;35499;51.482;4.264;2023-07-28T11:57:53;100731.25;;;25.03
49593;BMP280;35499;51.482;4.264;2023-07-28T12:00:24;100736.84;;;24.98
49593;BMP280;35499;51.482;4.264;2023-07-28T12:05:34;100730.03;;;24.73
49593;BMP280;35499;51.482;4.264;2023-07-28T12:08:01;100739.09;;;24.69
49593;BMP280;35499;51.482;4.264;2023-07-28T12:10:28;100737.31;;;24.70
49593;BMP280;35499;51.482;4.264;2023-07-28T12:12:53;100730.97;;;24.72
49593;BMP280;35499;51.482;4.264;2023-07-28T12:15:26;100740.31;;;24.76
49593;BMP280;35499;51.482;4.264;2023-07-28T12:18:14;100738.31;;;24.79
49593;BMP280;35499;51.482;4.264;2023-07-28T12:20:47;100733.59;;;24.72
49593;BMP280;35499;51.482;4.264;2023-07-28T12:23:15;100740.25;;;24.65
49593;BMP280;35499;51.482;4.264;2023-07-28T12:25:41;100742.59;;;24.58
49593;BMP280;35499;51.482;4.264;2023-07-28T12:28:06;100742.03;;;24.53
49593;BMP280;35499;51.482;4.264;2023-07-28T12:30:33;100733.84;;;24.57
49593;BMP280;35499;51.482;4.264;2023-07-28T12:32:58;100733.97;;;24.56
49593;BMP280;35499;51.482;4.264;2023-07-28T12:35:24;100738.50;;;24.76
49593;BMP280;35499;51.482;4.264;2023-07-28T12:37:51;100736.06;;;24.86
49593;BMP280;35499;51.482;4.264;2023-07-28T12:40:17;100738.69;;;24.86
49593;BMP280;35499;51.482;4.264;2023-07-28T12:42:44;100728.56;;;24.92
49593;BMP280;35499;51.482;4.264;2023-07-28T12:45:10;100738.03;;;24.94
49593;BMP280;35499;51.482;4.264;2023-07-28T12:47:36;100745.53;;;24.88
49593;BMP280;35499;51.482;4.264;2023-07-28T12:50:01;100744.50;;;24.78
49593;BMP280;35499;51.482;4.264;2023-07-28T12:52:27;100744.44;;;24.68
49593;BMP280;35499;51.482;4.264;2023-07-28T12:54:52;100738.28;;;24.57
49593;BMP280;35499;51.482;4.264;2023-07-28T12:57:17;100749.41;;;24.48
49593;BMP280;35499;51.482;4.264;2023-07-28T12:59:43;100752.91;;;24.36
49593;BMP280;35499;51.482;4.264;2023-07-28T13:02:08;100751.03;;;24.26
49593;BMP280;35499;51.482;4.264;2023-07-28T13:04:33;100747.38;;;24.16
49593;BMP280;35499;51.482;4.264;2023-07-28T13:06:59;100754.94;;;23.96
49593;BMP280;35499;51.482;4.264;2023-07-28T13:09:24;100758.72;;;23.80
49593;BMP280;35499;51.482;4.264;2023-07-28T13:11:49;100751.13;;;23.64
49593;BMP280;35499;51.482;4.264;2023-07-28T13:14:14;100766.31;;;23.47
49593;BMP280;35499;51.482;4.264;2023-07-28T13:16:40;100762.53;;;23.26
49593;BMP280;35499;51.482;4.264;2023-07-28T13:19:05;100769.75;;;23.09
49593;BMP280;35499;51.482;4.264;2023-07-28T13:21:31;100774.22;;;22.95
49593;BMP280;35499;51.482;4.264;2023-07-28T13:23:56;100765.66;;;22.79
49593;BMP280;35499;51.482;4.264;2023-07-28T13:26:21;100772.44;;;22.70
49593;BMP280;35499;51.482;4.264;2023-07-28T13:28:47;100770.19;;;22.64
49593;BMP280;35499;51.482;4.264;2023-07-28T13:31:15;100771.03;;;22.64
49593;BMP280;35499;51.482;4.264;2023-07-28T13:33:40;100763.09;;;22.66
49593;BMP280;35499;51.482;4.264;2023-07-28T13:36:05;100769.97;;;22.67
49593;BMP280;35499;51.482;4.264;2023-07-28T13:38:32;100765.41;;;22.70
49593;BMP280;35499;51.482;4.264;2023-07-28T13:40:58;100760.59;;;22.77
49593;BMP280;35499;51.482;4.264;2023-07-28T13:43:23;100762.97;;;22.81
49593;BMP280;35499;51.482;4.264;2023-07-28T13:45:48;100761.50;;;22.89
49593;BMP280;35499;51.482;4.264;2023-07-28T13:48:14;100759.03;;;23.00
49593;BMP280;35499;51.482;4.264;2023-07-28T13:50:39;100756.97;;;23.17
49593;BMP280;35499;51.482;4.264;2023-07-28T13:53:05;100748.97;;;23.32
49593;BMP280;35499;51.482;4.264;2023-07-28T13:55:30;100749.97;;;23.43
49593;BMP280;35499;51.482;4.264;2023-07-28T13:57:55;100751.66;;;23.56
49593;BMP280;35499;51.482;4.264;2023-07-28T14:00:20;100746.50;;;23.67
49593;BMP280;35499;51.482;4.264;2023-07-28T14:02:46;100746.84;;;23.75
49593;BMP280;35499;51.482;4.264;2023-07-28T14:05:11;100738.66;;;23.79